createdAt,value
2023-03-14T17:13:32.794Z,54.00
2023-03-14T17:18:31.202Z,55.00
2023-03-14T17:23:40.089Z,55.80
2023-03-14T17:28:48.632Z,58.60
2023-03-14T17:33:57.417Z,59.30
2023-03-14T17:39:06.014Z,61.20
2023-03-14T17:44:14.588Z,62.10
2023-03-14T17:49:23.507Z,62.70
2023-03-14T17:54:32.525Z,63.50
2023-03-14T17:59:41.704Z,64.10
2023-03-14T18:04:51.681Z,64.70
2023-03-14T18:10:01.527Z,65.00
2023-03-14T18:15:11.209Z,65.10
2023-03-14T18:20:21.757Z,65.30
2023-03-14T18:25:23.000Z,65.40
2023-03-14T18:30:22.004Z,65.40
2023-03-14T18:35:31.133Z,65.40
2023-03-14T18:40:39.667Z,65.40
2023-03-14T18:45:48.972Z,65.20
2023-03-14T18:50:57.367Z,64.90
2023-03-14T18:56:06.291Z,65.00
2023-03-14T19:01:18.607Z,64.80
2023-03-14T19:06:17.390Z,64.40
2023-03-14T19:11:25.643Z,63.90
2023-03-14T19:16:35.570Z,63.60
2023-03-14T19:21:44.194Z,63.50
2023-03-14T19:26:54.763Z,63.20
2023-03-14T19:32:01.058Z,63.30
2023-03-14T19:37:09.978Z,63.30
2023-03-14T19:42:18.228Z,63.50
2023-03-14T19:47:27.239Z,63.90
2023-03-14T19:52:36.087Z,64.10
2023-03-14T19:57:44.871Z,64.30
2023-03-14T20:02:53.477Z,64.70
2023-03-14T20:08:02.361Z,64.90
2023-03-14T20:13:20.644Z,65.00
2023-03-14T20:18:19.294Z,65.10
2023-03-14T20:23:28.046Z,65.40
2023-03-14T20:28:36.792Z,65.60
2023-03-14T20:33:45.656Z,65.70
2023-03-14T20:38:55.030Z,65.50
2023-03-14T20:44:03.246Z,65.60
2023-03-14T20:49:12.611Z,65.40
2023-03-14T20:54:20.827Z,65.30
2023-03-14T20:59:29.949Z,64.90
2023-03-14T21:04:38.371Z,65.20
2023-03-14T21:09:47.477Z,65.10
2023-03-14T21:14:56.004Z,65.40
2023-03-14T21:20:04.792Z,65.80
2023-03-14T21:25:13.452Z,65.90
2023-03-14T21:30:22.100Z,66.10
2023-03-14T21:35:30.333Z,66.00
2023-03-14T21:40:39.565Z,66.20
2023-03-14T21:45:48.409Z,65.90
2023-03-14T21:50:57.587Z,65.90
2023-03-14T21:56:06.533Z,65.50
2023-03-14T22:01:16.933Z,65.40
2023-03-14T22:06:15.592Z,65.20
2023-03-14T22:11:24.783Z,64.90
2023-03-14T22:16:33.188Z,64.80
2023-03-14T22:21:41.639Z,64.60
2023-03-14T22:26:50.297Z,64.60
2023-03-14T22:31:59.564Z,64.30
2023-03-14T22:37:08.119Z,63.70
2023-03-14T22:42:16.936Z,63.60
2023-03-14T22:47:25.131Z,63.40
2023-03-14T22:52:34.091Z,63.10
2023-03-14T22:57:42.793Z,62.80
2023-03-14T23:02:51.560Z,62.10
2023-03-14T23:08:00.139Z,61.90
2023-03-14T23:13:08.713Z,61.50
2023-03-14T23:18:17.578Z,61.50
2023-03-14T23:23:26.602Z,60.60
2023-03-14T23:28:35.122Z,60.90
2023-03-14T23:33:44.348Z,61.00
2023-03-14T23:38:53.196Z,60.60
2023-03-14T23:44:02.196Z,60.00
2023-03-14T23:49:10.614Z,59.70
2023-03-14T23:54:19.641Z,59.00
2023-03-14T23:59:28.230Z,59.00
